KJAC/JAC METAR and TAF weather

Enter ICAO airport designator
Station Type Date Time Source
KJAC METAR 2022/11/30 17:56 UTC NOAA

KJAC 301756Z 23012KT 1SM -SN SCT017 BKN025 OVC030 M07/M10 A2996 RMK AO2 SLP217 P0000 60000 T10721100 11072 21100 55003


Station Type Date Time Source
KJAC Decoded METAR 2022/11/30 17:56 UTC NOAA

Jackson, Jackson Hole Airport, WY, United States (KJAC) 43-36N 110-44W
Nov 30, 2022 - 12:56 PM EST / 2022.11.30 1756 UTC
Wind: from the SW (230 degrees) at 14 MPH (12 KT):0
Visibility: 1 mile(s):0
Sky conditions: overcast
Weather: light snow
Precipitation last hour: A trace
Temperature: 19.0 F (-7.2 C)
Windchill: 5 F (-15 C):1
Dew Point: 14.0 F (-10.0 C)
Relative Humidity: 80%
Pressure (altimeter): 29.96 in. Hg (1014 hPa)
Pressure tendency: 0.01 inches (0.3 hPa) lower than three hours ago
ob: KJAC 301756Z 23012KT 1SM -SN SCT017 BKN025 OVC030 M07/M10 A2996 RMK AO2 SLP217 P0000 60000 T10721100 11072 21100 55003
cycle: 18

Station Type Date Time Source
KJAC TAF 2022/11/30 18:24 UTC NOAA

TAF KJAC 301723Z 3018/0118 22011KT 2SM -SN SCT020 OVC035
FM302300 20009KT P6SM VCSH SCT030 OVC040
FM011600 21014G25KT 2SM -SN SCT015 BKN030

Example: see airport list